createdAt,value
2023-01-28T00:01:55.420Z,94350.41
2023-01-28T00:04:22.511Z,94345.38
2023-01-28T00:06:49.431Z,94324.94
2023-01-28T00:09:16.491Z,94353.41
2023-01-28T00:11:43.666Z,94361.91
2023-01-28T00:14:12.522Z,94345.88
2023-01-28T00:16:39.953Z,94333.59
2023-01-28T00:19:07.431Z,94368.16
2023-01-28T00:21:34.662Z,94349.75
2023-01-28T00:24:03.321Z,94382.72
2023-01-28T00:26:30.351Z,94372.38
2023-01-28T00:28:57.296Z,94367.34
2023-01-28T00:31:27.432Z,94369.78
2023-01-28T00:33:56.409Z,94380.47
2023-01-28T00:36:25.105Z,94354.53
2023-01-28T00:38:54.475Z,94363.69
2023-01-28T00:41:22.685Z,94391.97
2023-01-28T00:43:51.850Z,94397.66
2023-01-28T00:46:23.175Z,94398.03
2023-01-28T00:48:50.387Z,94396.22
2023-01-28T00:51:20.248Z,94391.78
2023-01-28T00:53:50.414Z,94397.81
2023-01-28T00:56:19.482Z,94398.19
2023-01-28T00:58:46.997Z,94389.47
2023-01-28T01:01:17.410Z,94380.59
2023-01-28T01:03:45.058Z,94377.63
2023-01-28T01:06:13.815Z,94398.25
2023-01-28T01:08:42.981Z,94394.00
2023-01-28T01:11:11.533Z,94397.84
2023-01-28T01:13:38.976Z,94396.00
2023-01-28T01:16:16.649Z,94403.84
2023-01-28T01:18:44.444Z,94402.81
2023-01-28T01:21:17.533Z,94390.66
2023-01-28T01:23:45.874Z,94406.25
2023-01-28T01:26:13.537Z,94393.28
2023-01-28T01:28:41.002Z,94391.91
2023-01-28T01:31:14.982Z,94403.81
2023-01-28T01:33:43.610Z,94406.19
2023-01-28T01:36:12.163Z,94404.75
2023-01-28T01:38:41.063Z,94394.63
2023-01-28T01:41:16.049Z,94409.53
2023-01-28T01:43:52.884Z,94406.00
2023-01-28T01:46:28.078Z,94384.97
2023-01-28T01:48:57.897Z,94405.00
2023-01-28T01:51:32.802Z,94408.00
2023-01-28T01:54:01.421Z,94403.13
2023-01-28T01:56:33.218Z,94412.63
2023-01-28T01:59:01.609Z,94406.56
2023-01-28T02:01:31.660Z,94396.03
2023-01-28T02:04:11.850Z,94411.38
2023-01-28T02:06:40.998Z,94418.88
2023-01-28T02:09:24.249Z,94418.69
2023-01-28T02:11:54.963Z,94406.75
2023-01-28T02:14:30.896Z,94408.75
2023-01-28T02:17:18.358Z,94401.09
2023-01-28T02:19:56.384Z,94409.75
2023-01-28T02:22:52.673Z,94416.31
2023-01-28T02:25:31.099Z,94400.47
2023-01-28T02:28:17.788Z,94433.19
2023-01-28T02:30:57.460Z,94432.13
2023-01-28T02:33:35.781Z,94419.88
2023-01-28T02:36:18.678Z,94426.13
2023-01-28T02:38:51.006Z,94434.81
2023-01-28T02:41:31.887Z,94433.25
2023-01-28T02:44:02.981Z,94431.03
2023-01-28T02:46:48.778Z,94434.06
2023-01-28T02:49:21.492Z,94411.81
2023-01-28T02:52:07.272Z,94430.38
2023-01-28T02:54:40.704Z,94430.19
2023-01-28T02:57:19.947Z,94435.03
2023-01-28T03:00:03.176Z,94354.88
2023-01-28T03:02:41.282Z,94440.09
2023-01-28T03:05:16.670Z,94435.00
2023-01-28T03:07:43.972Z,94404.81
2023-01-28T03:10:16.624Z,94416.56
2023-01-28T03:13:05.973Z,94449.41
2023-01-28T03:16:01.149Z,94429.91
2023-01-28T03:18:54.660Z,94449.84
2023-01-28T03:21:54.319Z,94442.44
2023-01-28T03:24:49.037Z,94438.78
2023-01-28T03:27:42.483Z,94445.66
2023-01-28T03:30:40.709Z,94385.97
2023-01-28T03:33:32.424Z,94444.75
2023-01-28T03:36:19.965Z,94391.00
2023-01-28T03:38:48.681Z,94430.13
2023-01-28T03:41:25.293Z,94445.22
2023-01-28T03:43:54.884Z,94457.31
2023-01-28T03:46:22.465Z,94454.34
2023-01-28T03:48:49.523Z,94428.41
2023-01-28T03:51:18.121Z,94443.97
2023-01-28T03:53:45.420Z,94442.41
2023-01-28T03:56:18.702Z,94405.28
2023-01-28T03:58:52.843Z,94432.84
2023-01-28T04:01:21.081Z,94442.16
2023-01-28T04:03:48.449Z,94471.28
2023-01-28T04:06:20.178Z,94452.91
2023-01-28T04:08:59.606Z,94452.88
2023-01-28T04:11:40.210Z,94450.78
2023-01-28T04:14:08.866Z,94477.28
2023-01-28T04:16:58.667Z,94466.09
2023-01-28T04:19:26.615Z,94475.56
2023-01-28T04:21:55.377Z,94479.84
2023-01-28T04:24:23.712Z,94480.94
2023-01-28T04:26:50.783Z,94465.03
2023-01-28T04:29:17.911Z,94474.34
2023-01-28T04:31:45.556Z,94424.88
2023-01-28T04:34:20.530Z,94456.28
2023-01-28T04:37:05.914Z,94496.69
2023-01-28T04:39:45.580Z,94500.81
2023-01-28T04:42:35.547Z,94492.06
2023-01-28T04:45:09.440Z,94494.75
2023-01-28T04:47:57.455Z,94487.78
2023-01-28T04:50:42.894Z,94500.56
2023-01-28T04:53:19.289Z,94507.47
2023-01-28T04:56:00.377Z,94510.69
2023-01-28T04:58:31.059Z,94496.66
2023-01-28T05:01:02.682Z,94506.38
2023-01-28T05:03:30.799Z,94521.72
2023-01-28T05:05:58.348Z,94504.09
2023-01-28T05:08:40.360Z,94526.78
2023-01-28T05:11:07.630Z,94514.25
2023-01-28T05:13:34.566Z,94523.09
2023-01-28T05:16:01.874Z,94495.59
2023-01-28T05:18:29.029Z,94533.84
2023-01-28T05:21:06.662Z,94518.38
2023-01-28T05:23:36.373Z,94519.25
2023-01-28T05:26:04.128Z,94532.00
2023-01-28T05:28:31.402Z,94540.09
2023-01-28T05:31:04.195Z,94535.22
2023-01-28T05:33:31.215Z,94532.38
2023-01-28T05:35:58.779Z,94524.38
2023-01-28T05:38:26.005Z,94542.59
2023-01-28T05:40:53.304Z,94545.56
2023-01-28T05:43:20.488Z,94524.97
2023-01-28T05:46:08.143Z,94519.47
2023-01-28T05:48:54.348Z,94522.53
2023-01-28T05:51:41.298Z,94524.63
2023-01-28T05:54:10.156Z,94537.28
2023-01-28T05:56:37.641Z,94548.94
2023-01-28T05:59:05.766Z,94558.44
2023-01-28T06:01:34.168Z,94566.59
2023-01-28T06:04:02.031Z,94557.63
2023-01-28T06:06:30.859Z,94557.19
2023-01-28T06:08:58.093Z,94577.81
2023-01-28T06:11:28.479Z,94577.72
2023-01-28T06:13:59.905Z,94584.50
2023-01-28T06:16:35.357Z,94588.66
2023-01-28T06:19:35.080Z,94582.41
2023-01-28T06:22:02.829Z,94584.75
2023-01-28T06:24:31.708Z,94582.84
2023-01-28T06:26:58.825Z,94595.38
2023-01-28T06:29:25.785Z,94595.75
2023-01-28T06:31:53.337Z,94596.94
2023-01-28T06:34:20.435Z,94599.31
2023-01-28T06:36:51.202Z,94592.59
2023-01-28T06:39:18.495Z,94618.84
2023-01-28T06:41:45.680Z,94618.34
2023-01-28T06:44:13.012Z,94622.88
2023-01-28T06:46:40.392Z,94624.81
2023-01-28T06:49:07.641Z,94588.72
2023-01-28T06:51:34.832Z,94624.88
2023-01-28T06:54:01.997Z,94626.69
2023-01-28T06:56:29.024Z,94634.47
2023-01-28T06:58:56.175Z,94642.09
2023-01-28T07:01:23.151Z,94617.75
2023-01-28T07:03:50.581Z,94639.22
2023-01-28T07:06:17.502Z,94618.44
2023-01-28T07:08:44.734Z,94645.13
2023-01-28T07:11:11.743Z,94646.13
2023-01-28T07:13:39.232Z,94646.03
2023-01-28T07:16:06.787Z,94643.69
2023-01-28T07:18:34.368Z,94644.84
2023-01-28T07:21:01.852Z,94653.09
2023-01-28T07:23:29.248Z,94671.56
2023-01-28T07:26:04.191Z,94671.19
2023-01-28T07:28:31.464Z,94672.81
2023-01-28T07:30:58.775Z,94663.50
2023-01-28T07:33:26.074Z,94652.59
2023-01-28T07:35:54.475Z,94646.13
2023-01-28T07:38:21.483Z,94636.66
2023-01-28T07:40:48.785Z,94674.94
2023-01-28T07:43:16.043Z,94685.19
2023-01-28T07:45:42.927Z,94650.28
2023-01-28T07:48:13.151Z,94678.75
2023-01-28T07:50:41.125Z,94681.69
2023-01-28T07:53:11.290Z,94672.56
2023-01-28T07:55:39.491Z,94637.91
2023-01-28T07:58:08.951Z,94680.13
2023-01-28T08:00:37.738Z,94704.81
2023-01-28T08:03:15.908Z,94698.47
2023-01-28T08:05:48.895Z,94706.75
2023-01-28T08:08:16.916Z,94664.38
2023-01-28T08:10:44.380Z,94674.94
2023-01-28T08:13:13.107Z,94691.75
2023-01-28T08:15:40.951Z,94693.22
2023-01-28T08:18:10.213Z,94564.97
2023-01-28T08:20:37.118Z,94682.56
2023-01-28T08:23:14.832Z,94723.44
2023-01-28T08:25:42.538Z,94722.47
2023-01-28T08:28:09.999Z,94659.00
2023-01-28T08:30:39.066Z,94723.16
2023-01-28T08:33:10.197Z,94719.97
2023-01-28T08:35:37.762Z,94679.06
2023-01-28T08:38:06.534Z,94719.84
2023-01-28T08:40:34.383Z,94699.47
2023-01-28T08:43:01.671Z,94701.16
2023-01-28T08:45:29.342Z,94727.53
2023-01-28T08:47:58.579Z,94722.59
2023-01-28T08:50:26.510Z,94725.09
2023-01-28T08:52:57.382Z,94724.59
2023-01-28T08:55:24.921Z,94728.91
2023-01-28T08:57:51.639Z,94729.03
2023-01-28T09:00:18.803Z,94734.13
2023-01-28T09:02:50.957Z,94737.56
2023-01-28T09:05:17.899Z,94728.28
2023-01-28T09:07:44.819Z,94731.72
2023-01-28T09:10:11.700Z,94732.78
2023-01-28T09:12:38.568Z,94736.03
2023-01-28T09:15:05.697Z,94738.22
2023-01-28T09:17:32.561Z,94737.66
2023-01-28T09:19:59.401Z,94734.22
2023-01-28T09:22:26.230Z,94733.88
2023-01-28T09:24:53.428Z,94743.59
2023-01-28T09:27:20.172Z,94745.59
2023-01-28T09:29:47.405Z,94741.72
2023-01-28T09:32:14.201Z,94733.25
2023-01-28T09:34:41.321Z,94729.44
2023-01-28T09:37:08.191Z,94737.91
2023-01-28T09:39:35.065Z,94736.28
2023-01-28T09:42:01.907Z,94737.84
2023-01-28T09:44:29.396Z,94744.16
2023-01-28T09:47:02.662Z,94733.59
2023-01-28T09:49:35.747Z,94737.47
2023-01-28T09:52:02.743Z,94734.06
2023-01-28T09:54:29.465Z,94733.88
2023-01-28T09:57:08.019Z,94734.84
2023-01-28T09:59:36.323Z,94735.84
2023-01-28T10:02:18.761Z,94736.84
2023-01-28T10:04:45.822Z,94732.06
2023-01-28T10:07:26.169Z,94733.44
2023-01-28T10:09:58.719Z,94729.63
2023-01-28T10:12:26.399Z,94730.88
2023-01-28T10:15:16.476Z,94720.72
2023-01-28T10:17:48.588Z,94715.88
2023-01-28T10:20:21.871Z,94722.59
2023-01-28T10:22:52.458Z,94710.41
2023-01-28T10:25:20.435Z,94721.97
2023-01-28T10:27:48.048Z,94732.66
2023-01-28T10:30:18.359Z,94723.06
2023-01-28T10:32:52.963Z,94652.50
2023-01-28T10:35:20.652Z,94730.97
2023-01-28T10:37:47.864Z,94723.88
2023-01-28T10:40:16.195Z,94724.50
2023-01-28T10:42:43.263Z,94718.47
2023-01-28T10:45:28.583Z,94719.72
2023-01-28T10:48:14.481Z,94722.34
2023-01-28T10:50:49.622Z,94720.34
2023-01-28T10:53:16.623Z,94715.69
2023-01-28T10:55:51.901Z,94728.03
2023-01-28T10:58:24.163Z,94722.59
2023-01-28T11:00:59.634Z,94716.69
2023-01-28T11:03:27.457Z,94716.50
2023-01-28T11:05:54.955Z,94724.63
2023-01-28T11:08:22.875Z,94720.75
2023-01-28T11:10:50.756Z,94715.53
2023-01-28T11:13:23.553Z,94709.06
2023-01-28T11:15:52.775Z,94712.53
2023-01-28T11:18:23.236Z,94725.69
2023-01-28T11:20:52.216Z,94721.81
2023-01-28T11:23:21.459Z,94718.59
2023-01-28T11:25:48.598Z,94715.75
2023-01-28T11:28:20.741Z,94712.09
2023-01-28T11:30:52.431Z,94717.16
2023-01-28T11:33:39.337Z,94709.88
2023-01-28T11:36:16.333Z,94711.72
2023-01-28T11:38:55.453Z,94715.38
2023-01-28T11:41:41.043Z,94712.91
2023-01-28T11:44:10.884Z,94710.09
2023-01-28T11:46:40.954Z,94706.47
2023-01-28T11:49:20.392Z,94709.72
2023-01-28T11:51:47.580Z,94708.09
2023-01-28T11:54:23.381Z,94706.84
2023-01-28T11:56:56.383Z,94703.22
2023-01-28T11:59:43.567Z,94698.16
2023-01-28T12:02:20.941Z,94703.00
2023-01-28T12:04:58.824Z,94709.31
2023-01-28T12:07:34.777Z,94709.72
2023-01-28T12:10:07.923Z,94707.28
2023-01-28T12:12:37.995Z,94708.66
2023-01-28T12:15:19.998Z,94711.53
2023-01-28T12:18:16.465Z,94717.81
2023-01-28T12:20:52.676Z,94716.38
2023-01-28T12:23:38.578Z,94713.16
2023-01-28T12:26:16.480Z,94702.22
2023-01-28T12:28:52.606Z,94710.31
2023-01-28T12:31:25.909Z,94713.75
2023-01-28T12:34:13.002Z,94712.16
2023-01-28T12:36:39.709Z,94724.91
2023-01-28T12:39:13.122Z,94720.63
2023-01-28T12:41:46.965Z,94714.56
2023-01-28T12:44:19.560Z,94713.56
2023-01-28T12:46:52.422Z,94720.84
2023-01-28T12:49:29.988Z,94730.19
2023-01-28T12:51:56.904Z,94731.56
2023-01-28T12:54:29.760Z,94730.56
2023-01-28T12:56:57.129Z,94739.50
2023-01-28T12:59:30.017Z,94732.59
2023-01-28T13:02:12.229Z,94739.91
2023-01-28T13:04:45.420Z,94738.69
2023-01-28T13:07:12.251Z,94739.50
2023-01-28T13:09:44.110Z,94741.13
2023-01-28T13:12:13.784Z,94750.84
2023-01-28T13:14:41.720Z,94741.91
2023-01-28T13:17:11.606Z,94744.34
2023-01-28T13:19:40.221Z,94739.91
2023-01-28T13:22:13.392Z,94755.31
2023-01-28T13:24:40.332Z,94754.72
2023-01-28T13:27:12.576Z,94755.72
2023-01-28T13:29:39.627Z,94761.38
2023-01-28T13:32:26.600Z,94755.31
2023-01-28T13:34:58.479Z,94753.25
2023-01-28T13:37:44.572Z,94764.63
2023-01-28T13:40:14.525Z,94776.81
2023-01-28T13:42:41.600Z,94772.94
2023-01-28T13:45:20.320Z,94759.13
2023-01-28T13:47:48.900Z,94773.91
2023-01-28T13:50:18.191Z,94768.88
2023-01-28T13:52:51.157Z,94773.31
2023-01-28T13:55:33.627Z,94785.25
2023-01-28T13:58:23.254Z,94786.25
2023-01-28T14:00:56.140Z,94787.25
2023-01-28T14:03:32.303Z,94792.53
2023-01-28T14:06:18.108Z,94790.91
2023-01-28T14:08:48.162Z,94784.44
2023-01-28T14:11:15.133Z,94792.00
2023-01-28T14:13:47.920Z,94802.59
2023-01-28T14:16:24.171Z,94812.28
2023-01-28T14:18:52.049Z,94811.28
2023-01-28T14:21:19.708Z,94816.34
2023-01-28T14:23:56.932Z,94804.41
2023-01-28T14:26:42.513Z,94816.16
2023-01-28T14:29:15.280Z,94823.84
2023-01-28T14:31:42.183Z,94817.97
2023-01-28T14:34:29.344Z,94825.25
2023-01-28T14:36:59.753Z,94828.34
2023-01-28T14:39:28.273Z,94826.88
2023-01-28T14:41:56.817Z,94823.84
2023-01-28T14:44:32.820Z,94830.28
2023-01-28T14:47:18.601Z,94831.34
2023-01-28T14:49:57.906Z,94832.53
2023-01-28T14:52:39.711Z,94829.56
2023-01-28T14:55:18.500Z,94840.31
2023-01-28T14:57:49.928Z,94843.75
2023-01-28T15:00:22.171Z,94850.97
2023-01-28T15:02:49.115Z,94846.13
2023-01-28T15:05:20.888Z,94855.22
2023-01-28T15:07:49.001Z,94857.16
2023-01-28T15:10:19.105Z,94806.78
2023-01-28T15:12:49.452Z,94852.66
2023-01-28T15:15:19.327Z,94855.91
2023-01-28T15:17:47.494Z,94857.56
2023-01-28T15:20:19.692Z,94854.91
2023-01-28T15:22:46.764Z,94865.06
2023-01-28T15:25:18.253Z,94857.13
2023-01-28T15:27:45.218Z,94861.56
2023-01-28T15:30:29.900Z,94864.19
2023-01-28T15:32:58.872Z,94859.09
2023-01-28T15:35:26.033Z,94864.00
2023-01-28T15:37:52.963Z,94863.38
2023-01-28T15:40:21.420Z,94867.06
2023-01-28T15:42:48.895Z,94874.16
2023-01-28T15:45:20.109Z,94865.44
2023-01-28T15:47:48.729Z,94874.16
2023-01-28T15:50:25.315Z,94875.75
2023-01-28T15:52:52.856Z,94872.00
2023-01-28T15:55:29.724Z,94888.13
2023-01-28T15:57:56.710Z,94879.94
2023-01-28T16:00:25.076Z,94884.06
2023-01-28T16:02:53.421Z,94884.91
2023-01-28T16:05:35.955Z,94893.41
2023-01-28T16:08:07.645Z,94893.28
2023-01-28T16:10:34.684Z,94888.84
2023-01-28T16:13:10.700Z,94895.59
2023-01-28T16:15:39.381Z,94903.69
2023-01-28T16:18:06.770Z,94901.28
2023-01-28T16:20:33.846Z,94901.28
2023-01-28T16:23:02.476Z,94908.50
2023-01-28T16:25:32.552Z,94907.69
2023-01-28T16:28:00.401Z,94909.19
2023-01-28T16:30:30.619Z,94901.94
2023-01-28T16:32:58.228Z,94917.88
2023-01-28T16:35:42.927Z,94912.34
2023-01-28T16:38:17.291Z,94916.69
2023-01-28T16:40:47.629Z,94915.44
2023-01-28T16:43:15.370Z,94925.59
2023-01-28T16:45:42.972Z,94919.50
2023-01-28T16:48:09.781Z,94923.44
2023-01-28T16:50:38.939Z,94920.06
2023-01-28T16:53:06.559Z,94926.78
2023-01-28T16:55:33.502Z,94929.19
2023-01-28T16:58:00.717Z,94926.25
2023-01-28T17:00:27.724Z,94929.06
2023-01-28T17:02:55.224Z,94930.88
2023-01-28T17:05:23.266Z,94930.88
2023-01-28T17:07:50.589Z,94924.41
2023-01-28T17:10:17.757Z,94932.53
2023-01-28T17:12:44.823Z,94937.28
2023-01-28T17:15:11.997Z,94937.03
2023-01-28T17:17:38.743Z,94943.28
2023-01-28T17:20:06.371Z,94944.09
2023-01-28T17:22:33.174Z,94943.72
2023-01-28T17:24:59.927Z,94946.31
2023-01-28T17:27:26.821Z,94946.94
2023-01-28T17:29:54.122Z,94960.81
2023-01-28T17:32:20.993Z,94952.97
2023-01-28T17:34:48.440Z,94955.63
2023-01-28T17:37:15.311Z,94966.25
2023-01-28T17:39:42.459Z,94961.44
2023-01-28T17:42:09.243Z,94965.34
2023-01-28T17:44:36.113Z,94963.25
2023-01-28T17:47:03.845Z,94961.75
2023-01-28T17:49:30.822Z,94962.34
2023-01-28T17:51:57.721Z,94975.63
2023-01-28T17:54:25.756Z,94978.53
2023-01-28T17:56:52.605Z,94979.72
2023-01-28T17:59:19.677Z,94973.84
2023-01-28T18:01:47.507Z,94972.53
2023-01-28T18:04:14.457Z,94967.22
2023-01-28T18:06:41.349Z,94981.47
2023-01-28T18:09:09.195Z,94975.53
2023-01-28T18:11:36.069Z,94975.91
2023-01-28T18:14:03.331Z,94985.00
2023-01-28T18:16:30.276Z,94984.00
2023-01-28T18:18:57.129Z,94989.09
2023-01-28T18:21:27.311Z,94983.47
2023-01-28T18:23:54.473Z,94998.88
2023-01-28T18:26:22.288Z,94990.22
2023-01-28T18:28:49.411Z,94987.84
2023-01-28T18:31:16.355Z,94995.91
2023-01-28T18:33:43.368Z,94993.91
2023-01-28T18:36:10.580Z,94990.03
2023-01-28T18:38:37.393Z,94991.13
2023-01-28T18:41:04.360Z,94995.97
2023-01-28T18:43:32.879Z,95000.25
2023-01-28T18:46:00.431Z,94996.38
2023-01-28T18:48:27.467Z,95005.09
2023-01-28T18:50:55.124Z,95002.81
2023-01-28T18:53:22.573Z,95002.28
2023-01-28T18:55:49.455Z,95003.88
2023-01-28T18:58:16.835Z,95002.50
2023-01-28T19:00:43.677Z,95001.34
2023-01-28T19:03:10.404Z,95010.03
2023-01-28T19:05:38.695Z,95008.59
2023-01-28T19:08:06.420Z,95002.22
2023-01-28T19:10:33.408Z,95005.59
2023-01-28T19:13:00.350Z,95001.47
2023-01-28T19:15:27.332Z,95004.28
2023-01-28T19:17:54.111Z,95015.34
2023-01-28T19:20:21.127Z,95013.66
2023-01-28T19:22:48.004Z,95015.28
2023-01-28T19:25:16.440Z,95018.84
2023-01-28T19:27:43.383Z,95028.47
2023-01-28T19:30:11.038Z,95025.09
2023-01-28T19:32:37.800Z,95031.34
2023-01-28T19:35:04.724Z,95017.34
2023-01-28T19:37:33.556Z,95030.97
2023-01-28T19:40:00.348Z,95037.50
2023-01-28T19:42:29.148Z,95034.78
2023-01-28T19:44:55.973Z,95034.25
2023-01-28T19:47:22.880Z,95041.13
2023-01-28T19:49:49.725Z,95039.22
2023-01-28T19:52:16.637Z,95038.72
2023-01-28T19:54:43.480Z,95040.19
2023-01-28T19:57:10.549Z,95042.13
2023-01-28T19:59:37.705Z,95045.75
2023-01-28T20:02:04.682Z,95043.81
2023-01-28T20:04:31.488Z,95050.31
2023-01-28T20:06:59.048Z,95043.06
2023-01-28T20:09:25.916Z,95043.25
2023-01-28T20:11:53.060Z,95052.38
2023-01-28T20:14:21.418Z,95051.19
2023-01-28T20:16:49.116Z,95054.13
2023-01-28T20:19:19.681Z,95053.97
2023-01-28T20:21:47.009Z,95054.09
2023-01-28T20:24:15.283Z,95053.34
2023-01-28T20:26:43.710Z,95055.66
2023-01-28T20:29:12.354Z,95058.22
2023-01-28T20:31:40.185Z,95056.13
2023-01-28T20:34:07.592Z,95060.03
2023-01-28T20:36:34.546Z,95056.31
2023-01-28T20:39:01.729Z,95068.09
2023-01-28T20:41:29.048Z,95066.38
2023-01-28T20:43:56.423Z,95078.47
2023-01-28T20:46:30.631Z,95079.94
2023-01-28T20:48:59.037Z,95069.69
2023-01-28T20:51:27.363Z,95084.06
2023-01-28T20:53:55.051Z,95069.38
2023-01-28T20:56:23.242Z,95086.59
2023-01-28T20:58:54.466Z,95075.94
2023-01-28T21:01:22.904Z,95077.72
2023-01-28T21:03:49.981Z,95076.44
2023-01-28T21:06:17.160Z,95075.72
2023-01-28T21:08:44.389Z,95076.13
2023-01-28T21:11:12.559Z,95084.88
2023-01-28T21:13:39.443Z,95099.16
2023-01-28T21:16:07.341Z,95096.69
2023-01-28T21:18:34.978Z,95089.47
2023-01-28T21:21:10.071Z,95086.63
2023-01-28T21:24:01.485Z,95105.41
2023-01-28T21:26:31.076Z,95103.59
2023-01-28T21:28:58.431Z,95099.25
2023-01-28T21:31:28.215Z,95097.72
2023-01-28T21:33:56.352Z,95096.81
2023-01-28T21:36:24.207Z,95101.59
2023-01-28T21:38:58.376Z,95103.03
2023-01-28T21:41:25.305Z,95106.97
2023-01-28T21:43:53.956Z,95105.75
2023-01-28T21:46:21.441Z,95101.88
2023-01-28T21:48:48.457Z,95100.78
2023-01-28T21:51:34.272Z,95097.16
2023-01-28T21:54:01.917Z,95103.50
2023-01-28T21:56:28.636Z,95106.19
2023-01-28T21:59:14.160Z,95098.28
2023-01-28T22:01:43.677Z,95106.31
2023-01-28T22:04:11.578Z,95109.34
2023-01-28T22:06:39.100Z,95102.41
2023-01-28T22:09:06.994Z,95112.00
2023-01-28T22:11:36.366Z,95112.09
2023-01-28T22:14:03.268Z,95116.38
2023-01-28T22:16:30.558Z,95110.41
2023-01-28T22:18:57.314Z,95114.13
2023-01-28T22:21:24.345Z,95115.06
2023-01-28T22:23:51.719Z,95116.41
2023-01-28T22:26:19.140Z,95101.47
2023-01-28T22:28:46.491Z,95104.81
2023-01-28T22:31:15.168Z,95103.09
2023-01-28T22:33:42.662Z,95104.38
2023-01-28T22:36:11.737Z,95106.41
2023-01-28T22:38:39.323Z,95104.53
2023-01-28T22:41:07.173Z,95100.91
2023-01-28T22:43:34.335Z,95105.69
2023-01-28T22:46:01.923Z,95107.22
2023-01-28T22:48:29.136Z,95102.94
2023-01-28T22:51:00.877Z,95101.88
2023-01-28T22:53:27.718Z,95103.03
2023-01-28T22:55:55.589Z,95099.81
2023-01-28T22:58:22.761Z,95105.41
2023-01-28T23:00:49.941Z,95102.88
2023-01-28T23:03:16.742Z,95105.22
2023-01-28T23:05:44.029Z,95101.09
2023-01-28T23:08:10.843Z,95107.06
2023-01-28T23:10:47.233Z,95111.03
2023-01-28T23:13:18.028Z,95107.63
2023-01-28T23:16:04.108Z,95113.91
2023-01-28T23:18:49.623Z,95105.41
2023-01-28T23:21:36.764Z,95107.47
2023-01-28T23:24:19.112Z,95102.94
2023-01-28T23:26:50.361Z,95099.16
2023-01-28T23:29:17.512Z,95101.94
2023-01-28T23:31:48.785Z,95105.41
2023-01-28T23:34:16.798Z,95106.84
2023-01-28T23:36:43.624Z,95100.16
2023-01-28T23:39:11.010Z,95106.81
2023-01-28T23:41:37.849Z,95102.97
2023-01-28T23:44:05.220Z,95098.66
2023-01-28T23:46:39.386Z,95100.31
2023-01-28T23:49:08.790Z,95094.72
2023-01-28T23:51:35.851Z,95100.16
2023-01-28T23:54:02.941Z,95098.88
2023-01-28T23:56:29.687Z,95101.13
2023-01-28T23:58:56.915Z,95106.31
